Time;durP1;ratioP1;P1;durP2;ratioP2;P2;SDS_P1;SDS_P2;PMS_P1;PMS_P2;Temp;Humidity;BMP_temperature;BMP_pressure;BME280_temperature;BME280_humidity;BME280_pressure;Samples;Min_cycle;Max_cycle;Signal;HPM_P1;HPM_P2
2022/07/25 00:02:13;;;;;;;;;;;;;;;21.74;71.93;100187.02;1677801;84;21220;-72
2022/07/25 00:04:41;;;;;;;;;;;;;;;21.71;72.01;100187.70;1675315;85;20724;-73
2022/07/25 00:07:08;;;;;;;;;;;;;;;21.67;71.99;100184.08;1677244;84;20207;-72
2022/07/25 00:09:34;;;;;;;;;;;;;;;21.64;71.96;100193.70;1673729;85;21503;-72
2022/07/25 00:12:03;;;;;;;;;;;;;;;21.60;71.96;100184.65;1675610;84;20178;-71
2022/07/25 00:14:31;;;;;;;;;;;;;;;21.60;71.84;100186.58;1675643;84;20147;-71
2022/07/25 00:16:57;;;;;;;;;;;;;;;21.58;71.79;100186.12;1674883;85;20179;-72
2022/07/25 00:19:24;;;;;;;;;;;;;;;21.53;71.73;100184.42;1674733;84;20180;-73
2022/07/25 00:21:51;;;;;;;;;;;;;;;21.50;71.56;100183.75;1674811;85;20210;-73
2022/07/25 00:24:17;;;;;;;;;;;;;;;21.45;71.37;100178.52;1673061;85;20171;-72
2022/07/25 00:26:43;;;;;;;;;;;;;;;21.43;71.23;100179.45;1672655;84;21058;-73
2022/07/25 00:29:11;;;;;;;;;;;;;;;21.41;71.25;100178.41;1673584;85;20131;-72
2022/07/25 00:31:39;;;;;;;;;;;;;;;21.38;71.16;100175.01;1677712;85;20135;-72
2022/07/25 00:34:05;;;;;;;;;;;;;;;21.37;71.20;100179.44;1678397;85;20164;-73
2022/07/25 00:36:32;;;;;;;;;;;;;;;21.33;71.28;100178.51;1675747;85;20198;-71
2022/07/25 00:38:59;;;;;;;;;;;;;;;21.28;71.37;100185.72;1674599;84;22142;-72
2022/07/25 00:41:25;;;;;;;;;;;;;;;21.25;71.53;100180.97;1674910;84;20168;-73
2022/07/25 00:43:53;;;;;;;;;;;;;;;21.22;71.41;100187.64;1675811;85;20523;-73
2022/07/25 00:46:20;;;;;;;;;;;;;;;21.17;71.42;100183.23;1675603;85;20223;-73
2022/07/25 00:48:46;;;;;;;;;;;;;;;;;;1672708;84;20202;-72
2022/07/25 00:51:13;;;;;;;;;;;;;;;21.09;71.42;100181.39;1673775;84;21094;-73
2022/07/25 00:53:40;;;;;;;;;;;;;;;21.07;71.45;100178.23;1679979;84;20449;-73
2022/07/25 00:56:07;;;;;;;;;;;;;;;21.03;71.44;100180.84;1678337;85;20450;-73
2022/07/25 00:58:33;;;;;;;;;;;;;;;21.02;71.53;100186.58;1678543;84;20156;-73
2022/07/25 01:01:00;;;;;;;;;;;;;;;20.99;71.55;100185.36;1678445;85;20143;-72
2022/07/25 01:03:26;;;;;;;;;;;;;;;20.94;71.56;100186.91;1682003;84;21114;-74
2022/07/25 01:05:53;;;;;;;;;;;;;;;20.92;71.70;100187.02;1678180;84;20338;-73
2022/07/25 01:08:20;;;;;;;;;;;;;;;20.88;71.77;100182.82;1674961;85;20418;-72
2022/07/25 01:10:47;;;;;;;;;;;;;;;20.85;71.92;100180.77;1675582;85;20151;-74
2022/07/25 01:13:13;;;;;;;;;;;;;;;20.83;71.99;100186.55;1674939;85;20163;-74
2022/07/25 01:15:41;;;;;;;;;;;;;;;20.82;72.10;100188.23;1675018;85;21163;-73
2022/07/25 01:18:08;;;;;;;;;;;;;;;20.81;72.14;100181.22;1674668;85;20174;-73
2022/07/25 01:20:34;;;;;;;;;;;;;;;20.80;72.18;100180.44;1675118;85;20147;-73
2022/07/25 01:23:01;;;;;;;;;;;;;;;20.81;72.21;100179.30;1676421;84;20172;-73
2022/07/25 01:25:28;;;;;;;;;;;;;;;20.77;72.17;100178.95;1677833;85;20147;-73
2022/07/25 01:27:55;;;;;;;;;;;;;;;20.76;72.14;100181.42;1676586;85;21158;-72
2022/07/25 01:30:23;;;;;;;;;;;;;;;20.75;72.07;100177.13;1677170;84;20454;-73
2022/07/25 01:32:49;;;;;;;;;;;;;;;20.73;72.01;100176.13;1674894;85;20189;-73
2022/07/25 01:35:18;;;;;;;;;;;;;;;20.72;71.88;100181.30;1675221;84;20235;-74
2022/07/25 01:37:44;;;;;;;;;;;;;;;20.72;71.98;100175.87;1675103;85;20218;-74
2022/07/25 01:40:11;;;;;;;;;;;;;;;20.72;72.09;100182.66;1674476;85;20488;-74
2022/07/25 01:42:37;;;;;;;;;;;;;;;20.73;72.15;100182.91;1676954;85;20166;-73
2022/07/25 01:45:05;;;;;;;;;;;;;;;20.74;72.09;100185.84;1678326;85;20172;-74
2022/07/25 01:47:32;;;;;;;;;;;;;;;20.74;72.10;100187.20;1677991;85;20147;-73
2022/07/25 01:49:58;;;;;;;;;;;;;;;20.73;72.03;100187.52;1676366;84;20181;-72
2022/07/25 01:52:24;;;;;;;;;;;;;;;20.73;72.15;100182.09;1675428;84;21348;-72
2022/07/25 01:54:50;;;;;;;;;;;;;;;20.70;71.96;100183.57;1675788;84;20167;-74
2022/07/25 01:57:17;;;;;;;;;;;;;;;20.68;71.91;100179.59;1651848;85;20178;-73
2022/07/25 01:59:44;;;;;;;;;;;;;;;20.64;71.85;100186.83;1667156;84;20182;-73
2022/07/25 02:02:10;;;;;;;;;;;;;;;20.60;71.87;100189.41;1675848;84;20477;-74
2022/07/25 02:04:37;;;;;;;;;;;;;;;20.56;71.90;100178.98;1674761;85;21178;-73
2022/07/25 02:07:04;;;;;;;;;;;;;;;20.53;72.07;100183.17;1667925;85;20245;-74
2022/07/25 02:09:31;;;;;;;;;;;;;;;20.51;72.29;100180.55;1672038;84;20178;-74
2022/07/25 02:11:59;;;;;;;;;;;;;;;20.47;72.38;100181.75;1671675;84;20170;-73
2022/07/25 02:14:25;;;;;;;;;;;;;;;20.44;72.52;100177.56;1676089;84;20454;-74
2022/07/25 02:16:52;;;;;;;;;;;;;;;20.42;72.77;100175.73;1675548;85;21170;-75
2022/07/25 02:19:20;;;;;;;;;;;;;;;20.41;72.98;100177.65;1675249;85;20178;-74
2022/07/25 02:21:46;;;;;;;;;;;;;;;20.42;73.01;100181.16;1675776;84;20460;-72
2022/07/25 02:24:13;;;;;;;;;;;;;;;20.42;73.00;100178.44;1672443;85;20186;-73
2022/07/25 02:26:39;;;;;;;;;;;;;;;20.43;72.94;100180.80;1658550;85;20469;-74
2022/07/25 02:29:06;;;;;;;;;;;;;;;20.46;72.82;100181.50;1651081;87;21154;-73
2022/07/25 02:31:33;;;;;;;;;;;;;;;20.49;72.53;100178.12;1662973;85;21082;-72
2022/07/25 02:34:00;;;;;;;;;;;;;;;20.50;72.36;100176.20;1674842;85;20184;-70
2022/07/25 02:36:26;;;;;;;;;;;;;;;20.50;71.78;100181.62;1675291;85;20413;-70
2022/07/25 02:38:52;;;;;;;;;;;;;;;20.51;71.64;100181.91;1675702;84;20191;-70
2022/07/25 02:41:19;;;;;;;;;;;;;;;20.49;71.54;100182.19;1675389;84;22405;-70
2022/07/25 02:43:45;;;;;;;;;;;;;;;20.51;71.48;100185.41;1675021;84;20175;-70
2022/07/25 02:46:12;;;;;;;;;;;;;;;20.56;71.15;100192.55;1674366;85;20185;-70
2022/07/25 02:48:38;;;;;;;;;;;;;;;20.54;70.99;100196.17;1674850;84;20178;-71
2022/07/25 02:51:06;;;;;;;;;;;;;;;20.53;70.83;100192.67;1674713;85;20219;-70
2022/07/25 02:53:32;;;;;;;;;;;;;;;20.55;70.60;100196.39;1675297;84;22100;-70
2022/07/25 02:55:59;;;;;;;;;;;;;;;20.55;70.59;100211.31;1675788;85;20147;-71
2022/07/25 02:58:25;;;;;;;;;;;;;;;20.55;70.42;100203.17;1678647;85;20151;-71
2022/07/25 03:00:51;;;;;;;;;;;;;;;20.55;70.09;100214.03;1677689;85;20631;-70
2022/07/25 03:03:18;;;;;;;;;;;;;;;20.55;70.08;100212.67;1675816;84;20272;-71
2022/07/25 03:05:46;;;;;;;;;;;;;;;20.57;70.07;100209.07;1675686;84;20202;-71
2022/07/25 03:08:13;;;;;;;;;;;;;;;20.58;70.02;100208.72;1673382;84;20554;-70
2022/07/25 03:10:40;;;;;;;;;;;;;;;20.62;69.80;100211.56;1676065;84;20514;-70
2022/07/25 03:13:07;;;;;;;;;;;;;;;20.31;70.36;100207.33;1672988;85;20422;-70
2022/07/25 03:15:35;;;;;;;;;;;;;;;20.15;71.03;100211.75;1675845;84;20270;-69
2022/07/25 03:18:01;;;;;;;;;;;;;;;20.12;71.39;100213.77;1675569;84;21165;-71
2022/07/25 03:20:28;;;;;;;;;;;;;;;20.12;71.55;100217.26;1674366;85;20222;-69
2022/07/25 03:22:54;;;;;;;;;;;;;;;20.12;71.70;100217.83;1675021;85;20213;-71
2022/07/25 03:25:22;;;;;;;;;;;;;;;20.10;71.91;100222.23;1668855;84;20648;-71
2022/07/25 03:27:50;;;;;;;;;;;;;;;20.11;71.90;100217.04;1672441;85;20175;-70
2022/07/25 03:30:16;;;;;;;;;;;;;;;20.10;71.92;100207.33;1675239;85;21138;-69
2022/07/25 03:32:42;;;;;;;;;;;;;;;20.12;71.88;100212.41;1672736;84;20492;-71
2022/07/25 03:35:08;;;;;;;;;;;;;;;20.12;71.89;100204.27;1675445;85;20151;-72
2022/07/25 03:37:35;;;;;;;;;;;;;;;20.75;70.24;100216.48;1674378;85;20152;-70
2022/07/25 03:40:03;;;;;;;;;;;;;;;20.97;69.06;100213.40;1676331;84;20142;-71
2022/07/25 03:42:30;;;;;;;;;;;;;;;21.02;68.63;100210.45;1678304;85;21090;-70
2022/07/25 03:44:56;;;;;;;;;;;;;;;21.06;68.41;100210.60;1677697;84;20454;-70
2022/07/25 03:47:23;;;;;;;;;;;;;;;21.06;67.80;100206.53;1674029;85;20143;-69
2022/07/25 03:49:49;;;;;;;;;;;;;;;20.99;67.73;100214.41;1674413;84;20159;-69
2022/07/25 03:52:16;;;;;;;;;;;;;;;20.97;67.92;100212.61;1674392;85;20179;-71
2022/07/25 03:54:42;;;;;;;;;;;;;;;20.95;67.85;100209.42;1675340;85;21540;-71
2022/07/25 03:57:10;;;;;;;;;;;;;;;20.90;67.66;100212.36;1678212;85;20140;-72
2022/07/25 03:59:36;;;;;;;;;;;;;;;20.88;67.88;100214.61;1678468;85;20152;-70
2022/07/25 04:02:03;;;;;;;;;;;;;;;20.83;67.87;100208.27;1676757;85;20158;-71
2022/07/25 04:04:29;;;;;;;;;;;;;;;20.80;67.90;100223.86;1678651;85;20168;-72
2022/07/25 04:06:55;;;;;;;;;;;;;;;20.82;67.94;100220.23;1678285;84;21561;-70
2022/07/25 04:09:22;;;;;;;;;;;;;;;20.80;67.87;100224.43;1678821;85;20159;-72
2022/07/25 04:11:48;;;;;;;;;;;;;;;20.80;68.05;100234.72;1678007;85;20147;-71
2022/07/25 04:14:14;;;;;;;;;;;;;;;20.80;68.12;100222.51;1678439;85;20966;-71
2022/07/25 04:16:41;;;;;;;;;;;;;;;20.83;68.21;100225.91;1678484;85;20138;-72
2022/07/25 04:19:07;;;;;;;;;;;;;;;20.88;68.39;100228.19;1678118;85;21154;-72
2022/07/25 04:21:34;;;;;;;;;;;;;;;20.89;68.44;100232.47;1678191;85;20563;-70
2022/07/25 04:24:00;;;;;;;;;;;;;;;20.91;68.25;100232.95;1678439;85;20143;-70
2022/07/25 04:26:27;;;;;;;;;;;;;;;20.91;68.26;100230.23;1678280;85;20417;-71
2022/07/25 04:28:53;;;;;;;;;;;;;;;20.92;68.26;100231.81;1678557;85;20143;-73
2022/07/25 04:31:20;;;;;;;;;;;;;;;20.94;68.26;100234.42;1678004;85;21173;-72
2022/07/25 04:33:46;;;;;;;;;;;;;;;20.97;67.90;100232.97;1675431;84;20214;-71
2022/07/25 04:36:14;;;;;;;;;;;;;;;20.96;67.82;100233.54;1674335;85;20209;-72
2022/07/25 04:38:41;;;;;;;;;;;;;;;20.97;67.75;100232.97;1674691;84;20510;-71
2022/07/25 04:41:07;;;;;;;;;;;;;;;20.97;67.68;100232.97;1674955;85;20131;-70
2022/07/25 04:43:34;;;;;;;;;;;;;;;20.98;67.82;100235.91;1674691;85;21163;-72
2022/07/25 04:46:00;;;;;;;;;;;;;;;21.01;67.69;100239.31;1673640;85;20147;-72
2022/07/25 04:48:27;;;;;;;;;;;;;;;21.02;67.56;100232.75;1673218;84;20500;-72
2022/07/25 04:50:53;;;;;;;;;;;;;;;21.07;67.58;100240.69;1675161;84;20234;-72
2022/07/25 04:53:19;;;;;;;;;;;;;;;21.09;67.32;100242.48;1675034;85;20175;-72
2022/07/25 04:55:46;;;;;;;;;;;;;;;21.11;67.16;100242.17;1679204;84;21686;-72
2022/07/25 04:58:12;;;;;;;;;;;;;;;21.12;67.07;100237.75;1675574;85;20147;-71
2022/07/25 05:00:39;;;;;;;;;;;;;;;21.17;66.91;100240.27;1675200;84;20139;-71
2022/07/25 05:03:05;;;;;;;;;;;;;;;21.12;66.85;100244.53;1651958;85;20149;-72
2022/07/25 05:05:32;;;;;;;;;;;;;;;21.13;66.85;100242.08;1674112;84;20151;-72
2022/07/25 05:07:58;;;;;;;;;;;;;;;21.17;66.64;100244.34;1675188;84;21115;-72
2022/07/25 05:10:26;;;;;;;;;;;;;;;21.22;66.29;100259.08;1675746;85;20480;-72
2022/07/25 05:12:53;;;;;;;;;;;;;;;21.25;66.22;100247.52;1674381;85;20191;-72
2022/07/25 05:15:19;;;;;;;;;;;;;;;21.28;66.12;100242.77;1674956;84;20657;-73
2022/07/25 05:17:47;;;;;;;;;;;;;;;21.35;65.96;100239.53;1674572;84;20194;-72
2022/07/25 05:20:16;;;;;;;;;;;;;;;21.41;65.95;100241.47;1675356;84;21118;-72
2022/07/25 05:22:44;;;;;;;;;;;;;;;21.52;65.45;100237.98;1675439;84;20184;-71
2022/07/25 05:25:11;;;;;;;;;;;;;;;21.56;65.16;100231.31;1673085;85;20388;-72
2022/07/25 05:27:38;;;;;;;;;;;;;;;21.71;65.00;100233.91;1665966;86;20156;-71
2022/07/25 05:30:06;;;;;;;;;;;;;;;21.84;64.74;100227.91;1675954;84;20180;-72
2022/07/25 05:32:33;;;;;;;;;;;;;;;21.95;64.58;100225.75;1677337;84;20545;-72
2022/07/25 05:34:59;;;;;;;;;;;;;;;22.10;64.35;100228.33;1684741;84;20121;-71
2022/07/25 05:37:25;;;;;;;;;;;;;;;22.26;63.61;100223.58;1678089;84;20248;-71
2022/07/25 05:39:52;;;;;;;;;;;;;;;22.37;62.62;100220.59;1644746;87;20553;-71
2022/07/25 05:42:19;;;;;;;;;;;;;;;22.46;62.52;100223.97;1654038;85;20130;-72
2022/07/25 05:44:46;;;;;;;;;;;;;;;22.61;62.23;100231.99;1661810;85;21999;-71
2022/07/25 05:47:12;;;;;;;;;;;;;;;22.73;61.58;100222.39;1676682;85;20127;-70
2022/07/25 05:49:38;;;;;;;;;;;;;;;22.85;61.47;100222.34;1676615;85;20150;-70
2022/07/25 05:52:05;;;;;;;;;;;;;;;22.99;61.29;100230.13;1679811;85;20178;-72
2022/07/25 05:54:34;;;;;;;;;;;;;;;23.04;60.72;100222.30;1679563;85;20135;-72
2022/07/25 05:57:01;;;;;;;;;;;;;;;23.10;60.53;100224.96;1678738;85;21602;-72
2022/07/25 05:59:27;;;;;;;;;;;;;;;23.12;60.13;100225.41;1679121;85;20448;-71
2022/07/25 06:01:54;;;;;;;;;;;;;;;23.06;59.90;100224.87;1679805;84;20139;-72
2022/07/25 06:04:20;;;;;;;;;;;;;;;23.04;60.26;100224.45;1679869;85;20136;-71
2022/07/25 06:06:50;;;;;;;;;;;;;;;23.06;59.98;100227.59;1679222;85;20459;-71
2022/07/25 06:09:18;;;;;;;;;;;;;;;23.02;59.70;100228.08;1679761;85;21109;-73
2022/07/25 06:11:45;;;;;;;;;;;;;;;23.03;60.01;100228.86;1682036;85;20124;-73
2022/07/25 06:14:12;;;;;;;;;;;;;;;23.07;59.86;100223.75;1680531;85;20143;-72
2022/07/25 06:16:38;;;;;;;;;;;;;;;23.12;59.66;100224.05;1679337;85;20164;-72
2022/07/25 06:19:05;;;;;;;;;;;;;;;23.17;59.41;100223.23;1683308;85;20146;-72
2022/07/25 06:21:32;;;;;;;;;;;;;;;23.21;59.07;100227.98;1679697;85;21158;-72
2022/07/25 06:23:58;;;;;;;;;;;;;;;23.25;58.98;100232.38;1679479;85;20478;-71
2022/07/25 06:26:26;;;;;;;;;;;;;;;23.23;58.72;100235.22;1679677;85;20366;-72
2022/07/25 06:28:52;;;;;;;;;;;;;;;23.17;58.74;100223.23;1676248;84;20164;-72
2022/07/25 06:31:20;;;;;;;;;;;;;;;23.16;58.71;100230.37;1676403;84;20216;-71
2022/07/25 06:33:46;;;;;;;;;;;;;;;23.20;58.98;100229.92;1665291;84;21165;-71
2022/07/25 06:36:13;;;;;;;;;;;;;;;23.24;58.65;100224.56;1669268;84;20399;-72
2022/07/25 06:38:39;;;;;;;;;;;;;;;23.25;58.60;100227.50;1669056;84;20297;-73
2022/07/25 06:41:06;;;;;;;;;;;;;;;23.34;58.52;100225.40;1660367;86;20126;-72
2022/07/25 06:43:33;;;;;;;;;;;;;;;23.44;57.69;100228.95;1645481;87;20202;-72
2022/07/25 06:45:59;;;;;;;;;;;;;;;23.49;57.54;100225.95;1647788;86;21845;-72
2022/07/25 06:48:26;;;;;;;;;;;;;;;23.57;57.04;100223.64;1665304;86;20207;-71
2022/07/25 06:50:54;;;;;;;;;;;;;;;23.52;56.91;100225.25;1668003;84;20164;-71
2022/07/25 06:53:21;;;;;;;;;;;;;;;23.49;57.37;100225.95;1669829;86;20137;-72
2022/07/25 06:55:47;;;;;;;;;;;;;;;23.56;57.49;100241.69;1657574;86;20147;-71
2022/07/25 06:58:17;;;;;;;;;;;;;;;23.59;57.24;100224.63;1644457;87;21167;-71
2022/07/25 07:00:44;;;;;;;;;;;;;;;23.63;56.82;100224.95;1645817;84;20213;-71
2022/07/25 07:03:11;;;;;;;;;;;;;;;23.57;56.97;100227.73;1668395;84;20197;-73
2022/07/25 07:05:38;;;;;;;;;;;;;;;23.46;57.13;100229.41;1668893;84;20697;-71
2022/07/25 07:08:05;;;;;;;;;;;;;;;23.47;57.49;100227.47;1665213;86;20440;-72
2022/07/25 07:10:39;;;;;;;;;;;;;;;23.59;57.36;100222.72;1668385;86;21144;-72
2022/07/25 07:13:10;;;;;;;;;;;;;;;23.68;57.38;100228.00;1670026;86;20200;-71
2022/07/25 07:15:40;;;;;;;;;;;;;;;23.74;57.09;100220.36;1670112;86;20180;-72
2022/07/25 07:18:09;;;;;;;;;;;;;;;23.81;56.93;100221.88;1669910;86;20200;-71
2022/07/25 07:20:43;;;;;;;;;;;;;;;23.95;56.75;100226.86;1670950;86;20181;-73
2022/07/25 07:23:17;;;;;;;;;;;;;;;24.16;56.72;100221.11;1647035;86;21170;-70
2022/07/25 07:25:46;;;;;;;;;;;;;;;24.39;55.19;100216.53;1671173;86;20263;-72
2022/07/25 07:28:21;;;;;;;;;;;;;;;24.54;54.92;100221.14;1671152;84;20145;-73
2022/07/25 07:30:54;;;;;;;;;;;;;;;24.66;54.72;100220.80;1671458;86;20633;-72
2022/07/25 07:33:22;;;;;;;;;;;;;;;24.79;54.63;100227.69;1671060;84;20456;-72
2022/07/25 07:35:51;;;;;;;;;;;;;;;24.89;54.35;100223.00;1671547;86;21863;-72
2022/07/25 07:38:26;;;;;;;;;;;;;;;24.96;53.72;100213.56;1671188;86;20162;-72
2022/07/25 07:41:00;;;;;;;;;;;;;;;24.93;53.44;100220.33;1671530;86;20563;-72
2022/07/25 07:43:36;;;;;;;;;;;;;;;24.85;53.33;100218.05;1671184;86;20481;-71
2022/07/25 07:46:09;;;;;;;;;;;;;;;24.82;52.40;100222.88;1671229;86;20518;-73
2022/07/25 07:48:52;;;;;;;;;;;;;;;24.79;52.28;100212.09;1671014;86;21168;-71
2022/07/25 07:51:34;;;;;;;;;;;;;;;24.78;52.18;100217.34;1671271;86;20174;-71
2022/07/25 07:56:59;;;;;;;;;;;;;;;24.88;51.94;100221.44;1671607;86;20371;-71
2022/07/25 07:59:28;;;;;;;;;;;;;;;24.97;51.53;100226.06;1667128;86;20183;-71
2022/07/25 08:02:20;;;;;;;;;;;;;;;25.06;50.81;100214.91;1644034;87;21684;-73
2022/07/25 08:04:47;;;;;;;;;;;;;;;25.03;50.01;100216.42;1670197;84;20148;-71
2022/07/25 08:07:14;;;;;;;;;;;;;;;25.02;49.73;100221.69;1674186;84;20178;-72
2022/07/25 08:09:40;;;;;;;;;;;;;;;25.03;49.32;100218.37;1666710;86;20174;-72
2022/07/25 08:12:07;;;;;;;;;;;;;;;25.08;48.99;100222.19;1663653;86;20176;-71
2022/07/25 08:14:35;;;;;;;;;;;;;;;25.11;48.57;100214.63;1663741;85;20952;-73
2022/07/25 08:17:03;;;;;;;;;;;;;;;25.18;48.93;100220.83;1663756;85;20122;-71
2022/07/25 08:19:29;;;;;;;;;;;;;;;25.30;48.58;100212.42;1663799;85;20473;-72
2022/07/25 08:21:56;;;;;;;;;;;;;;;25.41;49.03;100224.34;1665238;85;20182;-72
2022/07/25 08:24:22;;;;;;;;;;;;;;;25.38;48.31;100220.97;1667223;86;20480;-72
2022/07/25 08:26:49;;;;;;;;;;;;;;;25.45;47.49;100218.34;1683990;85;21169;-72
2022/07/25 08:29:15;;;;;;;;;;;;;;;25.52;47.37;100215.52;1678443;85;20173;-72
2022/07/25 08:31:41;;;;;;;;;;;;;;;25.56;47.76;100214.99;1695876;84;20144;-72
2022/07/25 08:34:08;;;;;;;;;;;;;;;25.67;47.66;100214.59;1700521;84;20147;-72
2022/07/25 08:36:34;;;;;;;;;;;;;;;25.75;46.93;100210.80;1700109;84;20441;-71
2022/07/25 08:39:01;;;;;;;;;;;;;;;25.84;46.86;100205.11;1700228;84;21190;-71
2022/07/25 08:41:27;;;;;;;;;;;;;;;25.91;45.58;100210.09;1697399;84;20136;-72
2022/07/25 08:43:53;;;;;;;;;;;;;;;25.97;45.29;100201.00;1700187;84;20477;-72
2022/07/25 08:46:21;;;;;;;;;;;;;;;26.06;45.52;100206.99;1699975;84;20171;-71
2022/07/25 08:48:48;;;;;;;;;;;;;;;26.11;45.01;100205.87;1700252;83;20150;-71
2022/07/25 08:51:14;;;;;;;;;;;;;;;26.18;45.03;100204.59;1700199;84;21172;-71
2022/07/25 08:53:41;;;;;;;;;;;;;;;26.25;44.93;100210.16;1700017;84;20164;-70
2022/07/25 08:56:08;;;;;;;;;;;;;;;26.30;44.60;100196.73;1700112;84;20233;-72
2022/07/25 08:58:38;;;;;;;;;;;;;;;26.36;44.95;100198.77;1700115;84;20142;-72
2022/07/25 09:01:06;;;;;;;;;;;;;;;26.44;44.26;100215.48;1699556;84;20086;-72
2022/07/25 09:03:33;;;;;;;;;;;;;;;26.51;43.63;100200.33;1654320;87;21229;-71
2022/07/25 09:06:01;;;;;;;;;;;;;;;26.58;43.89;100196.30;1654104;86;20161;-71
2022/07/25 09:08:28;;;;;;;;;;;;;;;26.69;43.97;100202.70;1655009;86;20221;-72
2022/07/25 09:10:55;;;;;;;;;;;;;;;26.73;42.88;100203.52;1654319;86;20177;-72
2022/07/25 09:13:22;;;;;;;;;;;;;;;26.69;43.12;100199.97;1654569;86;20153;-71
2022/07/25 09:15:53;;;;;;;;;;;;;;;26.75;42.81;100192.98;1676269;85;21215;-72
2022/07/25 09:18:24;;;;;;;;;;;;;;;26.83;42.56;100200.69;1675355;84;20170;-73
2022/07/25 09:20:54;;;;;;;;;;;;;;;26.93;42.37;100197.85;1677968;85;20202;-70
2022/07/25 09:23:35;;;;;;;;;;;;;;;27.03;42.16;100197.17;1676554;84;20185;-72
2022/07/25 09:26:06;;;;;;;;;;;;;;;27.03;41.80;100198.53;1675395;84;20184;-73
2022/07/25 09:28:41;;;;;;;;;;;;;;;27.05;41.62;100194.84;1676064;84;21858;-70
2022/07/25 09:31:08;;;;;;;;;;;;;;;27.02;41.27;100189.53;1650693;85;20175;-71
2022/07/25 09:33:47;;;;;;;;;;;;;;;27.06;41.58;100182.70;1679063;85;20153;-71
2022/07/25 09:36:13;;;;;;;;;;;;;;;27.12;41.63;100183.94;1680551;84;20188;-72
2022/07/25 09:38:40;;;;;;;;;;;;;;;27.18;42.15;100181.65;1680635;84;20213;-72
2022/07/25 09:41:06;;;;;;;;;;;;;;;27.24;42.35;100180.92;1654476;85;21086;-71
2022/07/25 09:43:43;;;;;;;;;;;;;;;27.29;42.28;100183.91;1666871;85;20159;-72
2022/07/25 09:46:10;;;;;;;;;;;;;;;27.20;42.33;100187.55;1654943;86;20186;-72
2022/07/25 09:48:39;;;;;;;;;;;;;;;27.10;42.49;100187.05;1654857;86;20187;-71
2022/07/25 09:51:05;;;;;;;;;;;;;;;27.07;42.96;100185.64;1671228;85;20149;-71
2022/07/25 09:53:32;;;;;;;;;;;;;;;27.07;43.34;100182.91;1681407;85;21125;-72
2022/07/25 09:55:58;;;;;;;;;;;;;;;27.09;43.51;100190.17;1681673;83;20145;-71
2022/07/25 09:58:27;;;;;;;;;;;;;;;27.15;42.39;100190.63;1683275;85;20526;-72
2022/07/25 10:00:56;;;;;;;;;;;;;;;27.27;42.04;100183.50;1667784;85;20174;-70
2022/07/25 10:03:32;;;;;;;;;;;;;;;27.46;42.14;100184.62;1678705;85;20192;-71
2022/07/25 10:06:08;;;;;;;;;;;;;;;27.61;41.23;100193.77;1680961;85;21918;-72
2022/07/25 10:08:37;;;;;;;;;;;;;;;27.70;40.81;100187.33;1678017;85;20440;-71
2022/07/25 10:11:05;;;;;;;;;;;;;;;27.77;40.86;100192.92;1661033;83;20164;-72
2022/07/25 10:13:35;;;;;;;;;;;;;;;27.80;41.33;100181.16;1655923;86;20147;-72
2022/07/25 10:16:02;;;;;;;;;;;;;;;27.85;41.52;100181.98;1670276;85;20152;-72
2022/07/25 10:18:29;;;;;;;;;;;;;;;27.87;40.83;100174.13;1658481;83;22208;-72
2022/07/25 10:21:10;;;;;;;;;;;;;;;27.81;41.47;100183.34;1684206;84;20169;-71
2022/07/25 10:23:36;;;;;;;;;;;;;;;27.71;41.84;100190.30;1682935;85;20172;-71
2022/07/25 10:26:18;;;;;;;;;;;;;;;27.64;40.76;100192.19;1669687;85;20607;-70
2022/07/25 10:28:49;;;;;;;;;;;;;;;27.60;39.90;100177.86;1668660;85;20447;-71
2022/07/25 10:31:22;;;;;;;;;;;;;;;27.58;39.80;100173.36;1683270;85;21136;-72
2022/07/25 10:33:51;;;;;;;;;;;;;;;27.64;39.54;100170.23;1683211;85;20412;-71
2022/07/25 10:36:19;;;;;;;;;;;;;;;27.52;40.23;100174.88;1681289;85;20204;-73
2022/07/25 10:38:46;;;;;;;;;;;;;;;27.57;38.78;100162.75;1683641;85;20160;-70
2022/07/25 10:41:15;;;;;;;;;;;;;;;27.63;38.28;100168.09;1683492;85;20200;-70
2022/07/25 10:43:44;;;;;;;;;;;;;;;27.59;39.04;100185.12;1680363;85;21635;-71
2022/07/25 10:46:19;;;;;;;;;;;;;;;27.52;40.38;100171.36;1681589;84;20156;-71
2022/07/25 10:48:58;;;;;;;;;;;;;;;27.49;40.34;100177.02;1680946;85;20137;-71
2022/07/25 10:51:27;;;;;;;;;;;;;;;27.51;40.30;100172.50;1675369;83;20287;-72
2022/07/25 10:53:53;;;;;;;;;;;;;;;27.53;39.07;100169.59;1676357;84;20219;-72
2022/07/25 10:56:22;;;;;;;;;;;;;;;27.52;38.82;100163.91;1680059;83;21046;-72
2022/07/25 10:58:54;;;;;;;;;;;;;;;27.05;40.26;100170.96;1646283;85;20226;-72
2022/07/25 11:01:29;;;;;;;;;;;;;;;26.95;40.13;100163.98;1647794;85;20192;-71
2022/07/25 11:04:03;;;;;;;;;;;;;;;26.98;39.75;100159.13;1676207;84;20160;-71
2022/07/25 11:06:35;;;;;;;;;;;;;;;27.03;39.59;100160.16;1644049;85;20262;-72
2022/07/25 11:09:06;;;;;;;;;;;;;;;27.06;39.09;100169.00;1668009;86;21912;-71
2022/07/25 11:11:36;;;;;;;;;;;;;;;27.10;38.55;100168.44;1645313;86;20211;-71
2022/07/25 11:14:04;;;;;;;;;;;;;;;27.12;37.04;100160.64;1670149;84;20162;-72
2022/07/25 11:16:32;;;;;;;;;;;;;;;27.15;37.31;100157.17;1670640;86;20189;-71
2022/07/25 11:18:59;;;;;;;;;;;;;;;27.20;37.74;100159.55;1676987;84;20159;-71
2022/07/25 11:21:25;;;;;;;;;;;;;;;27.25;38.70;100152.36;1674249;85;21067;-73
2022/07/25 11:23:52;;;;;;;;;;;;;;;27.36;38.01;100155.95;1674324;84;20170;-72
2022/07/25 11:26:18;;;;;;;;;;;;;;;27.34;37.70;100171.20;1675178;84;20492;-70
2022/07/25 11:28:48;;;;;;;;;;;;;;;27.26;38.19;100157.25;1675659;85;20191;-71
2022/07/25 11:31:16;;;;;;;;;;;;;;;27.24;39.05;100157.61;1675864;84;20213;-71
2022/07/25 11:33:45;;;;;;;;;;;;;;;27.23;38.82;100160.16;1674097;85;21337;-72
2022/07/25 11:36:11;;;;;;;;;;;;;;;27.23;39.70;100159.37;1673121;85;20473;-71
2022/07/25 11:38:38;;;;;;;;;;;;;;;27.30;40.01;100159.43;1672156;84;20159;-71
2022/07/25 11:41:06;;;;;;;;;;;;;;;27.40;39.46;100149.12;1674770;84;20167;-71
2022/07/25 11:43:32;;;;;;;;;;;;;;;27.47;38.46;100147.80;1675704;84;20505;-71
2022/07/25 11:46:05;;;;;;;;;;;;;;;27.48;39.25;100148.61;1675221;84;21237;-70
2022/07/25 11:48:38;;;;;;;;;;;;;;;27.45;38.90;100163.08;1674841;85;20183;-71
2022/07/25 11:51:10;;;;;;;;;;;;;;;27.45;38.47;100150.15;1672805;85;20170;-71
2022/07/25 11:53:42;;;;;;;;;;;;;;;27.60;38.45;100157.28;1677409;84;20239;-73
2022/07/25 11:56:16;;;;;;;;;;;;;;;27.83;39.05;100154.91;1676476;84;20544;-72
2022/07/25 11:58:45;;;;;;;;;;;;;;;27.74;39.07;100146.19;1672553;84;21798;-71
2022/07/25 12:01:13;;;;;;;;;;;;;;;27.72;39.11;100148.55;1675187;84;20174;-72
2022/07/25 12:03:40;;;;;;;;;;;;;;;27.64;39.30;100157.34;1675678;84;20128;-72
2022/07/25 12:06:09;;;;;;;;;;;;;;;27.46;39.74;100153.09;1671383;85;20724;-72
2022/07/25 12:08:40;;;;;;;;;;;;;;;27.29;40.47;100151.80;1674682;85;20193;-70
2022/07/25 12:11:17;;;;;;;;;;;;;;;27.21;41.08;100151.52;1671658;85;20148;-72
2022/07/25 12:13:45;;;;;;;;;;;;;;;27.19;41.05;100148.97;1675184;84;20214;-69
2022/07/25 12:16:11;;;;;;;;;;;;;;;27.18;39.66;100148.75;1673203;84;20148;-71
2022/07/25 12:18:38;;;;;;;;;;;;;;;27.21;39.38;100139.77;1674341;84;20169;-72
2022/07/25 12:21:05;;;;;;;;;;;;;;;27.27;38.99;100141.78;1676470;85;20238;-71
2022/07/25 12:23:32;;;;;;;;;;;;;;;27.33;38.54;100138.11;1678172;85;21165;-71
2022/07/25 12:25:58;;;;;;;;;;;;;;;27.40;38.91;100131.30;1676862;85;20228;-72
2022/07/25 12:28:26;;;;;;;;;;;;;;;27.40;39.11;100128.55;1674984;84;20139;-72
2022/07/25 12:30:54;;;;;;;;;;;;;;;27.41;39.80;100134.81;1674936;85;20186;-71
2022/07/25 12:33:20;;;;;;;;;;;;;;;27.46;39.72;100135.26;1675796;84;20150;-71
2022/07/25 12:35:46;;;;;;;;;;;;;;;27.47;40.11;100131.92;1675011;85;21817;-72
2022/07/25 12:38:13;;;;;;;;;;;;;;;27.42;39.94;100128.97;1674957;85;20206;-71
2022/07/25 12:40:40;;;;;;;;;;;;;;;27.54;40.11;100127.85;1674404;85;20777;-72
2022/07/25 12:43:08;;;;;;;;;;;;;;;27.88;38.89;100133.19;1676026;84;20425;-71
2022/07/25 12:45:36;;;;;;;;;;;;;;;27.96;38.78;100127.92;1673978;85;20207;-73